Hlavní strana
METAR-TAF:

METAR-TAF

Letiště :

Letiště Kyjev-Žuljany

Kyjev, Ukrajina

zeměpisná šířka: 50-24N, zeměpisná délka: 030-34E, výška: 166 m

Aktuální stav počasí

Zpráva byla vytvořena před 25 minutami, v 13:00 UTC
Severozápadní vítr 14 kt
Teplota 12°C
Vlhkost vzduchu 62%
Tlak 1019 hPa
Viditelnost 10 km a více
Oblačno až skoro zataženo ve výšce 3400 ft

METAR: UKKK 181300Z 31007MPS 9999 BKN034 12/05 Q1019 R26/CLRD70 NOSIG

Čas: 16:25 (13:25 UTC)

Předpověď počasí

Zpráva byla vytvořena před 2 hodinami a 23 minutami, v 11:02 UTC
Předpověď platná od 18 v 12 UTC do 19 v 12 UTC
Severozápadní vítr 14 kt s nárazy do 25 kt
Viditelnost 10 km a více
Oblačno až skoro zataženo ve výšce 2500 ft
Pravděpodobnost 40% :
Dočasný
od 18 v 12 UTC do 18 v 16 UTC
Západoseverozápadní vítr 19 kt s nárazy do 31 kt
Změna
od 18 v 16 UTC do 18 v 18 UTC
Západoseverozápadní vítr 10 kt s nárazy do 19 kt

TAF: UKKK 181102Z 1812/1912 31007G13MPS 9999 BKN025 PROB40 TEMPO 1812/1816 29010G16MPS BECMG 1816/1818 30005G10MPS

Stav a předpovědi počasí z více než 4 000 letišť (zprávy METAR a TAF).

Červené a žluté tečky na mapě představují dostupné meteorologické stanice.

Když kurzor umístíte na tečku, zobrazí se název stanice.

Pak kliknutím zobrazíte stav a předpověď počasí.

Chcete-li změnit mapu, kliknutím na zelené tlačítko se znaménkem +mapu přiblížíte, kliknutím na zelené tlačítko se znaménkem – mapu oddálíte a kliknutím na zelené šipky přejdete na sousední mapy.


METAR-TAF: